DNPO

Details ICAO DNPO (PHC)
Name PORT HARCOURT INTL
Region Nigeria
Timezone Africa/Lagos (UTC+1.0)
Plans Departing 37
Arriving 34
Stats Elevation 87 ft / 27 m (AMSL)
Location 5.015455° 6.949529°
Runways 1
Magnetic Variation 1.620° W
Sunrise 2017-12-16 05:34:14 UTC / 2017-12-16 06:34:14 Local
Sunset 2017-12-16 17:24:11 UTC / 2017-12-16 18:24:11 Local
Advertisement - Login to hide

Runways

ID Width Length Bearing (true) Bearing (mag) Surface Threshold Offset Overrun Length
03 197 ft / 60 m 9,888 ft / 3,014 m 28.09° 29.71° Asphalt 0 ft / 0 m 400 ft / 122 m
21 197 ft / 60 m 9,888 ft / 3,014 m 208.09° 209.71° Asphalt 0 ft / 0 m 400 ft / 122 m

Approach Navaids

Runway Type Ident Frequency Range Bearing (true) Bearing (mag) Slope Elevation
21 Localiser IPC 110.30 MHz 18 nm / 33 km 208.09° 209.71° - 85 ft / 26 m (AMSL)
21 Glidescope IPC 110.30 MHz 10 nm / 19 km 208.09° 209.71° 3.00° 131 ft / 40 m (AMSL)
21 DME IPC 110.30 MHz 18 nm / 33 km - - - 87 ft / 27 m (AMSL)

Map

Weather


0- 5 10 15 20 25 30 35+ Temperature / ° C

Clouds and Precipitation
Forecast for 2017-12-16 18:00 UTC. Updated 6 minutes ago

Ground ~20,000 ft ~40,000 ft Winds

METAR

DNPO 161700Z VRB02KT 5000 HZ FEW011 31/25 Q1007 NOSIG

TAF

TAF DNPO 160940Z 1612/1718 28006KT 3000 HZ SCT010 TEMPO 1614/1617 TS BKN012 FEW020CB

Frequencies

Recorded 123.80 MHz ATIS
Approach 124.90 MHz APP
Tower 118.90 MHz TWR
Warning: Do not use this data for real-world aviation or navigation. No guarantee of current accuracy is given.